Time;durP1;ratioP1;P1;durP2;ratioP2;P2;SDS_P1;SDS_P2;PMS_P1;PMS_P2;Temp;Humidity;BMP_temperature;BMP_pressure;BME280_temperature;BME280_humidity;BME280_pressure;Samples;Min_cycle;Max_cycle;Signal;HPM_P1;HPM_P2
2023/01/23 14:57:19;;;;;;;14.98;12.90;;;;;;;2.71;100.00;103680.63;5091717;27;20404;-34
2023/01/23 14:59:46;;;;;;;17.63;13.40;;;;;;;2.72;100.00;103675.16;5091463;28;20032;-34
2023/01/23 15:02:30;;;;;;;15.10;13.50;;;;;;;2.75;100.00;103682.94;5091894;28;20111;-34
2023/01/23 15:05:10;;;;;;;15.35;13.73;;;;;;;2.64;100.00;103664.19;5091312;28;20111;-34
2023/01/23 15:08:15;;;;;;;16.55;13.20;;;;;;;2.73;100.00;103666.19;5091039;28;20020;-34
2023/01/23 15:10:40;;;;;;;16.15;13.00;;;;;;;2.64;100.00;103672.19;5090644;28;20103;-35
2023/01/23 15:13:23;;;;;;;15.50;13.83;;;;;;;2.71;100.00;103683.28;5090967;28;20125;-35
2023/01/23 15:15:57;;;;;;;14.90;12.90;;;;;;;2.68;100.00;103672.81;5090816;28;20460;-34
2023/01/23 15:18:27;;;;;;;16.92;13.95;;;;;;;2.61;100.00;103675.06;5090824;28;20012;-35
2023/01/23 15:20:58;;;;;;;15.35;13.52;;;;;;;2.63;100.00;103677.63;5090450;28;20103;-34
2023/01/23 15:23:32;;;;;;;15.75;13.82;;;;;;;2.59;100.00;103690.38;5091038;28;20032;-34
2023/01/23 15:26:24;;;;;;;15.77;13.70;;;;;;;2.57;100.00;103687.78;5090706;28;20457;-34
2023/01/23 15:28:56;;;;;;;15.13;13.52;;;;;;;2.57;100.00;103686.94;5090923;28;20017;-34
2023/01/23 15:31:27;;;;;;;14.90;13.27;;;;;;;2.57;100.00;103685.13;5090738;28;20117;-34
2023/01/23 15:33:53;;;;;;;14.57;12.73;;;;;;;2.55;100.00;103679.03;5090269;28;20025;-35
2023/01/23 15:36:28;;;;;;;15.20;13.60;;;;;;;2.49;100.00;103670.59;5090347;28;20027;-34
2023/01/23 15:38:56;;;;;;;15.88;13.73;;;;;;;2.57;100.00;103676.25;5090758;28;20032;-34
2023/01/23 15:41:59;;;;;;;15.60;12.82;;;;;;;2.63;100.00;103681.16;5090319;28;20016;-34
2023/01/23 15:44:27;;;;;;;12.80;11.30;;;;;;;2.58;100.00;103683.28;5067918;28;20397;-35
2023/01/23 15:46:53;;;;;;;14.57;12.75;;;;;;;2.50;100.00;103681.19;5051119;28;20036;-34
2023/01/23 15:49:19;;;;;;;14.38;12.88;;;;;;;2.54;100.00;103704.06;5067966;28;20040;-34
2023/01/23 15:51:44;;;;;;;12.53;10.40;;;;;;;2.52;100.00;103702.44;5067524;28;20591;-35
2023/01/23 15:54:25;;;;;;;13.63;11.57;;;;;;;2.51;100.00;103717.63;5067455;28;20112;-35
2023/01/23 15:56:50;;;;;;;13.35;11.75;;;;;;;2.53;100.00;103715.69;5067819;28;20485;-35
2023/01/23 15:59:17;;;;;;;13.63;10.50;;;;;;;2.56;100.00;103726.16;5068158;28;20091;-35
2023/01/23 16:01:43;;;;;;;10.65;9.52;;;;;;;2.54;100.00;103730.75;5067505;28;20294;-34
2023/01/23 16:04:09;;;;;;;12.20;10.40;;;;;;;2.47;100.00;103724.13;5067660;28;20087;-34
2023/01/23 16:06:35;;;;;;;11.35;9.90;;;;;;;2.51;100.00;103725.63;5065873;28;20037;-34
2023/01/23 16:09:01;;;;;;;11.80;10.40;;;;;;;2.55;100.00;103739.63;5054107;28;20025;-34
2023/01/23 16:11:31;;;;;;;11.30;10.10;;;;;;;2.55;100.00;103728.94;5053967;28;20055;-35
2023/01/23 16:13:57;;;;;;;12.40;11.00;;;;;;;2.56;100.00;103722.63;5054552;28;20037;-34
2023/01/23 16:16:22;;;;;;;10.57;9.50;;;;;;;2.54;100.00;103716.56;5054156;28;20035;-34
2023/01/23 16:18:48;;;;;;;11.23;9.17;;;;;;;2.60;100.00;103726.81;5069732;28;20346;-34
2023/01/23 16:21:15;;;;;;;11.67;10.10;;;;;;;2.54;100.00;103724.56;5076133;28;20028;-35
2023/01/23 16:23:41;;;;;;;11.07;9.88;;;;;;;2.66;100.00;103728.19;5076644;28;20028;-35
2023/01/23 16:26:18;;;;;;;11.05;9.90;;;;;;;2.62;100.00;103734.69;5075783;28;20030;-35
2023/01/23 16:28:43;;;;;;;11.07;9.32;;;;;;;2.61;100.00;103728.50;5075765;28;20116;-35
2023/01/23 16:31:11;;;;;;;11.43;9.87;;;;;;;2.54;100.00;103708.53;5075134;28;20124;-35
2023/01/23 16:33:37;;;;;;;10.80;9.65;;;;;;;2.64;100.00;103722.09;5075944;28;20035;-35
2023/01/23 16:36:04;;;;;;;10.47;9.37;;;;;;;2.62;100.00;103718.66;5075572;28;20028;-35
2023/01/23 16:38:29;;;;;;;10.23;8.82;;;;;;;2.60;100.00;103726.81;5075518;28;20025;-34
2023/01/23 16:40:58;;;;;;;11.47;8.93;;;;;;;2.53;100.00;103710.34;5076360;28;20074;-35
2023/01/23 16:43:24;;;;;;;11.40;9.90;;;;;;;2.61;100.00;103730.31;5075741;28;20082;-35
2023/01/23 16:45:50;;;;;;;;;;;;;;;2.65;100.00;103724.66;5076299;28;20063;-35
2023/01/23 16:48:16;;;;;;;9.75;8.75;;;;;;;2.58;100.00;103736.72;5076788;28;19926;-35
2023/01/23 16:50:45;;;;;;;10.98;9.88;;;;;;;2.59;100.00;103730.44;5108640;28;20033;-35
2023/01/23 16:53:31;;;;;;;10.35;9.18;;;;;;;2.60;100.00;103745.50;5076468;28;20039;-34
2023/01/23 16:55:59;;;;;;;11.23;9.82;;;;;;;2.61;100.00;103736.53;5076167;28;20376;-34
2023/01/23 16:58:30;;;;;;;10.82;9.73;;;;;;;2.63;100.00;103739.06;5075460;28;20350;-34
2023/01/23 17:01:02;;;;;;;10.25;9.18;;;;;;;2.59;100.00;103730.44;5075374;28;20043;-34
2023/01/23 17:03:32;;;;;;;10.50;9.45;;;;;;;2.64;100.00;103741.66;5075657;28;20030;-34
2023/01/23 17:05:58;;;;;;;10.80;9.77;;;;;;;2.65;100.00;103748.72;5075898;28;20461;-34
2023/01/23 17:08:24;;;;;;;10.07;9.07;;;;;;;2.61;100.00;103744.53;5076116;28;20103;-34
2023/01/23 17:10:53;;;;;;;10.98;9.95;;;;;;;2.63;100.00;103750.59;5075180;28;20331;-34
2023/01/23 17:13:21;;;;;;;10.63;9.55;;;;;;;2.66;100.00;103753.09;5075103;28;20039;-34
2023/01/23 17:15:49;;;;;;;10.88;9.88;;;;;;;2.62;100.00;103746.25;5075030;28;20025;-34
2023/01/23 17:18:26;;;;;;;11.73;10.52;;;;;;;2.64;100.00;103747.00;5075254;28;20027;-34
2023/01/23 17:20:55;;;;;;;11.15;9.95;;;;;;;2.55;100.00;103736.97;5074678;28;20021;-34
2023/01/23 17:23:21;;;;;;;11.70;10.50;;;;;;;2.46;100.00;103718.91;5074989;28;20029;-34
2023/01/23 17:25:47;;;;;;;11.45;10.35;;;;;;;2.61;100.00;103762.38;5075097;28;20029;-34
2023/01/23 17:28:13;;;;;;;12.40;11.20;;;;;;;2.63;100.00;103755.97;5074597;28;20050;-34
2023/01/23 17:30:40;;;;;;;11.50;10.40;;;;;;;2.63;100.00;103752.44;5074999;28;20100;-34
2023/01/23 17:33:05;;;;;;;;;;;;;;;2.68;100.00;103759.16;5076061;28;20021;-34
2023/01/23 17:35:35;;;;;;;13.45;11.27;;;;;;;2.65;100.00;103759.41;5074541;28;19908;-34
2023/01/23 17:38:02;;;;;;;12.80;11.40;;;;;;;2.58;100.00;103744.75;5074729;28;20020;-34
2023/01/23 17:40:28;;;;;;;12.75;11.45;;;;;;;2.63;100.00;103760.44;5075220;28;20112;-34
2023/01/23 17:42:53;;;;;;;11.50;10.40;;;;;;;2.63;100.00;103763.13;5075126;28;20067;-34
2023/01/23 17:45:22;;;;;;;12.07;10.75;;;;;;;2.63;100.00;103766.66;5074768;28;20270;-34
2023/01/23 17:47:50;;;;;;;12.38;11.18;;;;;;;2.62;100.00;103764.09;5074403;28;20111;-34
2023/01/23 17:50:24;;;;;;;13.48;12.18;;;;;;;2.53;100.00;103755.75;5074584;28;20029;-34
2023/01/23 17:52:51;;;;;;;12.02;10.77;;;;;;;2.61;100.00;103768.59;5074166;28;20035;-34
2023/01/23 17:55:24;;;;;;;13.43;11.40;;;;;;;2.61;100.00;103763.25;5074454;28;20115;-34
2023/01/23 17:57:50;;;;;;;12.05;10.93;;;;;;;2.61;100.00;103760.56;5074907;28;20044;-34
2023/01/23 18:00:20;;;;;;;;;;;;;;;2.66;100.00;103763.78;5075113;28;20020;-34
2023/01/23 18:02:56;;;;;;;12.25;11.02;;;;;;;2.55;100.00;103747.66;5074117;28;19916;-34
2023/01/23 18:05:22;;;;;;;12.85;11.65;;;;;;;2.55;100.00;103767.19;5074465;28;20032;-34
2023/01/23 18:07:47;;;;;;;12.40;11.10;;;;;;;2.58;100.00;103774.13;5073875;28;20138;-34
2023/01/23 18:10:12;;;;;;;12.20;11.00;;;;;;;2.58;100.00;103766.97;5074969;28;20016;-34
2023/01/23 18:13:15;;;;;;;12.33;11.03;;;;;;;2.60;100.00;103777.56;5073835;28;20487;-34
2023/01/23 18:16:01;;;;;;;12.43;11.20;;;;;;;2.58;100.00;103766.13;5073950;28;20035;-34
2023/01/23 18:18:37;;;;;;;12.20;10.80;;;;;;;2.55;100.00;103769.03;5074493;28;20039;-34
2023/01/23 18:21:04;;;;;;;12.25;10.75;;;;;;;2.57;100.00;103777.75;5074242;28;20032;-34
2023/01/23 18:23:31;;;;;;;11.63;10.43;;;;;;;2.49;100.00;103769.41;5074081;28;20052;-35
2023/01/23 18:26:08;;;;;;;12.85;11.63;;;;;;;2.56;100.00;103786.75;5074394;28;20033;-34
2023/01/23 18:29:05;;;;;;;11.85;10.63;;;;;;;2.51;100.00;103768.38;5074179;28;20435;-35
2023/01/23 18:32:05;;;;;;;11.43;10.32;;;;;;;2.52;100.00;103785.25;5069338;28;20480;-35
2023/01/23 18:34:40;;;;;;;12.73;11.43;;;;;;;2.56;100.00;103786.75;5073796;28;20465;-34
2023/01/23 18:37:40;;;;;;;12.68;11.05;;;;;;;2.58;100.00;103780.31;5073957;28;20107;-34
2023/01/23 18:41:06;;;;;;;11.52;10.32;;;;;;;2.62;100.00;103785.47;5073467;28;20530;-34
2023/01/23 18:43:38;;;;;;;11.40;10.20;;;;;;;2.61;100.00;103781.94;5051661;28;20071;-34
2023/01/23 18:46:10;;;;;;;12.75;10.80;;;;;;;2.62;100.00;103791.66;5051729;28;20129;-34
2023/01/23 18:48:39;;;;;;;12.10;10.90;;;;;;;2.63;100.00;103788.03;5051274;28;20104;-35
2023/01/23 18:51:23;;;;;;;12.60;11.30;;;;;;;2.61;100.00;103792.63;5051160;28;20112;-35
2023/01/23 18:54:00;;;;;;;12.40;10.80;;;;;;;2.60;100.00;103792.75;5051596;28;20033;-35
2023/01/23 18:56:37;;;;;;;12.10;10.90;;;;;;;2.51;100.00;103773.72;5051072;28;20132;-35
2023/01/23 18:59:26;;;;;;;12.52;11.23;;;;;;;2.59;100.00;103797.22;5051843;28;20045;-34
2023/01/23 19:01:56;;;;;;;11.70;10.60;;;;;;;2.54;100.00;103794.03;5051106;28;20095;-35
2023/01/23 19:04:37;;;;;;;11.75;10.48;;;;;;;2.56;100.00;103786.75;5051161;28;20481;-35
2023/01/23 19:07:13;;;;;;;10.70;9.60;;;;;;;2.51;100.00;103775.53;5051518;28;20045;-35
2023/01/23 19:09:45;;;;;;;11.63;10.43;;;;;;;2.61;100.00;103795.31;5051515;28;20047;-35
2023/01/23 19:12:24;;;;;;;11.82;10.60;;;;;;;2.57;100.00;103791.13;5051193;28;20091;-35
2023/01/23 19:15:21;;;;;;;12.13;10.73;;;;;;;2.58;100.00;103793.69;5051781;28;20100;-35
2023/01/23 19:17:57;;;;;;;11.90;10.65;;;;;;;2.50;100.00;103782.69;5050932;28;20032;-35
2023/01/23 19:20:38;;;;;;;8.93;8.02;;;;;;;2.59;100.00;103794.56;5071637;28;20037;-35
2023/01/23 19:23:22;;;;;;;11.27;10.07;;;;;;;2.61;100.00;103800.63;5072977;28;20495;-35
2023/01/23 19:25:47;;;;;;;12.85;11.45;;;;;;;2.48;100.00;103773.06;5073607;28;20021;-35
2023/01/23 19:28:14;;;;;;;12.52;11.23;;;;;;;2.55;100.00;103785.03;5073185;28;20020;-35
2023/01/23 19:30:39;;;;;;;;;;;;;;;2.61;100.00;103797.13;5073646;28;20021;-35
2023/01/23 19:33:04;;;;;;;11.23;10.05;;;;;;;2.58;100.00;103799.03;5105469;28;20049;-35
2023/01/23 19:35:30;;;;;;;15.10;11.43;;;;;;;2.57;100.00;103799.13;5073162;28;20039;-35
2023/01/23 19:37:56;;;;;;;12.27;10.98;;;;;;;2.58;100.00;103798.16;5073068;28;20059;-35
2023/01/23 19:40:21;;;;;;;12.43;11.13;;;;;;;2.59;100.00;103802.56;5073673;28;20021;-35
2023/01/23 19:42:46;;;;;;;12.00;10.77;;;;;;;2.61;100.00;103805.13;5075041;28;20603;-35
2023/01/23 19:45:18;;;;;;;12.50;11.20;;;;;;;2.57;100.00;103788.44;5076590;28;20119;-35
2023/01/23 19:47:44;;;;;;;15.80;12.07;;;;;;;2.58;100.00;103804.38;5077071;28;20021;-35
2023/01/23 19:50:14;;;;;;;12.55;11.25;;;;;;;2.60;100.00;103806.94;5076794;28;20035;-35
2023/01/23 19:52:44;;;;;;;12.52;11.23;;;;;;;2.51;100.00;103799.56;5077240;28;20119;-35
2023/01/23 19:55:31;;;;;;;12.50;11.05;;;;;;;2.56;100.00;103808.13;5076523;28;20013;-34
2023/01/23 19:57:57;;;;;;;13.45;11.63;;;;;;;2.55;100.00;103803.75;5077201;28;20044;-34
2023/01/23 20:00:28;;;;;;;13.00;11.70;;;;;;;2.48;100.00;103792.59;5076850;28;20020;-34
2023/01/23 20:02:54;;;;;;;12.65;11.27;;;;;;;2.57;100.00;103815.16;5076772;28;20027;-35
2023/01/23 20:05:19;;;;;;;12.52;11.20;;;;;;;2.51;100.00;103804.91;5076416;28;20107;-34
2023/01/23 20:07:45;;;;;;;11.95;10.75;;;;;;;2.55;100.00;103806.41;5076448;28;20020;-34
2023/01/23 20:10:11;;;;;;;12.17;10.53;;;;;;;2.54;100.00;103810.91;5076202;28;20024;-35
2023/01/23 20:12:40;;;;;;;;;;;;;;;2.53;100.00;103819.00;5076786;28;20032;-35
2023/01/23 20:15:06;;;;;;;13.05;10.93;;;;;;;2.53;100.00;103819.00;5076499;28;20018;-33
2023/01/23 20:17:31;;;;;;;13.02;11.63;;;;;;;2.52;100.00;103828.84;5076833;28;20036;-34
2023/01/23 20:19:56;;;;;;;13.97;12.00;;;;;;;2.50;100.00;103828.09;5075979;28;20090;-33
2023/01/23 20:22:22;;;;;;;12.63;11.33;;;;;;;2.52;100.00;103823.50;5075902;28;20024;-34
2023/01/23 20:24:47;;;;;;;13.00;11.70;;;;;;;2.50;100.00;103825.44;5076187;28;20061;-34
2023/01/23 20:27:12;;;;;;;12.93;11.60;;;;;;;2.53;100.00;103827.03;5074803;28;20383;-34
2023/01/23 20:29:38;;;;;;;13.33;11.93;;;;;;;2.51;100.00;103826.28;5074933;28;20032;-34
2023/01/23 20:32:03;;;;;;;12.80;11.50;;;;;;;2.48;100.00;103821.13;5076038;28;20461;-34
2023/01/23 20:34:31;;;;;;;14.02;12.63;;;;;;;2.50;100.00;103822.75;5075578;28;20150;-36
2023/01/23 20:36:57;;;;;;;13.95;12.55;;;;;;;2.44;100.00;103819.63;5075859;28;20025;-34
2023/01/23 20:39:22;;;;;;;15.43;13.93;;;;;;;2.42;100.00;103821.56;5076148;28;20480;-34
2023/01/23 20:41:47;;;;;;;13.60;12.20;;;;;;;2.45;100.00;103816.03;5075709;28;20023;-34
2023/01/23 20:44:13;;;;;;;13.67;12.27;;;;;;;2.42;100.00;103822.41;5076590;28;20107;-34
2023/01/23 20:46:38;;;;;;;15.47;12.60;;;;;;;2.44;100.00;103828.53;5075655;28;20075;-34
2023/01/23 20:49:04;;;;;;;12.70;11.40;;;;;;;2.43;100.00;103829.47;5075951;28;20023;-34
2023/01/23 20:51:29;;;;;;;14.13;12.30;;;;;;;2.38;100.00;103812.03;5075582;28;20095;-35
2023/01/23 20:53:54;;;;;;;13.80;12.40;;;;;;;2.43;100.00;103821.44;5076058;28;20028;-34
2023/01/23 20:56:26;;;;;;;13.30;11.90;;;;;;;2.43;100.00;103817.94;5075404;28;20048;-35
2023/01/23 21:04:24;;;;;;;14.23;12.73;;;;;;;2.46;100.00;103823.06;5075445;28;20040;-34
2023/01/23 21:06:49;;;;;;;15.15;12.65;;;;;;;2.43;100.00;103821.44;5075324;28;20031;-35
2023/01/23 21:09:15;;;;;;;14.48;12.98;;;;;;;2.43;100.00;103807.25;5075856;28;20032;-35
2023/01/23 21:11:40;;;;;;;13.00;11.60;;;;;;;2.49;100.00;103820.16;5075080;28;20429;-35
2023/01/23 21:14:06;;;;;;;14.67;13.17;;;;;;;2.48;100.00;103813.13;5076074;28;20273;-35
2023/01/23 21:16:31;;;;;;;14.70;12.37;;;;;;;2.47;100.00;103825.63;5074764;28;20062;-35
2023/01/23 21:18:59;;;;;;;14.85;13.20;;;;;;;2.46;100.00;103823.94;5074855;28;20028;-35
2023/01/23 21:21:25;;;;;;;14.43;12.93;;;;;;;2.46;100.00;103820.41;5074771;28;20095;-35
2023/01/23 21:23:50;;;;;;;15.43;13.80;;;;;;;2.48;100.00;103815.78;5075281;28;20078;-34
2023/01/23 21:26:23;;;;;;;16.00;14.07;;;;;;;2.49;100.00;103817.50;5075189;28;20036;-34
2023/01/23 21:28:50;;;;;;;14.38;12.93;;;;;;;2.50;100.00;103820.09;5074864;28;20074;-34
2023/01/23 21:31:19;;;;;;;16.15;12.90;;;;;;;2.45;100.00;103805.34;5075380;28;20086;-35
2023/01/23 21:33:45;;;;;;;14.57;13.07;;;;;;;2.52;100.00;103814.63;5075014;28;20024;-35
2023/01/23 21:36:13;;;;;;;14.40;12.90;;;;;;;2.48;100.00;103810.44;5074629;28;20050;-35
2023/01/23 21:38:39;;;;;;;16.45;13.48;;;;;;;2.49;100.00;103820.16;5074427;28;20414;-34
2023/01/23 21:41:04;;;;;;;16.25;14.10;;;;;;;2.45;100.00;103816.03;5074697;28;20032;-34
2023/01/23 21:43:30;;;;;;;15.17;13.30;;;;;;;2.49;100.00;103828.19;5074615;28;20055;-34
2023/01/23 21:45:58;;;;;;;15.43;13.77;;;;;;;2.39;100.00;103819.97;5074312;28;20021;-34
2023/01/23 21:48:24;;;;;;;15.20;13.60;;;;;;;2.41;100.00;103827.88;5075350;28;20052;-34
2023/01/23 21:50:50;;;;;;;14.98;13.38;;;;;;;2.37;100.00;103829.88;5074524;28;20444;-34
2023/01/23 21:53:15;;;;;;;16.48;14.77;;;;;;;2.35;100.00;103836.31;5074729;28;20109;-34
2023/01/23 21:55:40;;;;;;;15.20;13.60;;;;;;;2.37;100.00;103834.38;5075105;28;20429;-34
2023/01/23 21:58:06;;;;;;;17.03;14.80;;;;;;;2.38;100.00;103830.75;5074728;28;20042;-34
2023/01/23 22:03:15;;;;;;;15.85;13.20;;;;;;;2.41;100.00;103820.72;5074303;28;20040;-34
2023/01/23 22:05:41;;;;;;;14.90;13.27;;;;;;;2.39;100.00;103830.66;5074564;28;20021;-35
2023/01/23 22:08:06;;;;;;;14.77;12.97;;;;;;;2.40;100.00;103834.19;5074152;28;20021;-34
2023/01/23 22:10:32;;;;;;;15.63;14.03;;;;;;;2.39;100.00;103832.44;5074443;28;20557;-34
2023/01/23 22:12:57;;;;;;;16.95;14.43;;;;;;;2.38;100.00;103828.06;5074532;28;20512;-34
2023/01/23 22:15:22;;;;;;;16.47;14.17;;;;;;;2.35;100.00;103823.81;5074280;28;20017;-35
2023/01/23 22:17:48;;;;;;;15.82;14.20;;;;;;;2.37;100.00;103829.88;5073965;28;20035;-34
2023/01/23 22:20:13;;;;;;;16.60;14.90;;;;;;;2.37;100.00;103829.88;5074317;28;20035;-34
2023/01/23 22:22:39;;;;;;;16.40;13.67;;;;;;;2.35;100.00;103823.81;5073900;28;20261;-34
2023/01/23 22:25:05;;;;;;;15.23;13.67;;;;;;;2.37;100.00;103832.56;5073917;28;20020;-34
2023/01/23 22:27:30;;;;;;;15.55;13.90;;;;;;;2.22;100.00;103797.06;5073886;28;20021;-34
2023/01/23 22:29:55;;;;;;;15.70;14.03;;;;;;;2.30;100.00;103818.78;5073882;28;20455;-34
2023/01/23 22:32:21;;;;;;;16.27;13.77;;;;;;;2.38;100.00;103831.59;5074101;28;20020;-33
2023/01/23 22:34:46;;;;;;;16.70;14.50;;;;;;;2.38;100.00;103825.41;5073521;28;20107;-34
2023/01/23 22:37:11;;;;;;;14.67;13.03;;;;;;;2.39;100.00;103827.09;5073665;28;20063;-34
2023/01/23 22:39:37;;;;;;;15.30;13.67;;;;;;;2.37;100.00;103834.38;5074038;28;20102;-34
2023/01/23 22:42:02;;;;;;;15.70;13.93;;;;;;;2.36;100.00;103832.69;5073961;28;20089;-34
2023/01/23 22:44:28;;;;;;;15.97;14.30;;;;;;;2.31;100.00;103824.97;5072678;28;20453;-34
2023/01/23 22:46:54;;;;;;;;;;;;;;;2.38;100.00;103834.25;5074049;28;20032;-34
2023/01/23 22:49:19;;;;;;;14.87;13.30;;;;;;;2.35;100.00;103841.66;5073846;28;20244;-35
2023/01/23 22:51:44;;;;;;;16.00;14.17;;;;;;;2.25;100.00;103830.75;5074109;28;20584;-35
2023/01/23 22:54:10;;;;;;;15.40;13.80;;;;;;;2.32;100.00;103838.22;5073926;28;20445;-35
2023/01/23 22:56:35;;;;;;;15.63;13.93;;;;;;;2.28;100.00;103834.03;5073458;28;20062;-35
2023/01/23 22:59:00;;;;;;;16.33;14.00;;;;;;;2.35;100.00;103852.34;5073525;28;20012;-35
2023/01/23 23:01:26;;;;;;;15.17;12.93;;;;;;;2.33;100.00;103855.09;5073435;28;20028;-34
2023/01/23 23:03:52;;;;;;;14.70;12.75;;;;;;;2.30;100.00;103861.50;5072804;28;20476;-34
2023/01/23 23:06:18;;;;;;;14.70;13.13;;;;;;;2.30;100.00;103853.50;5073435;28;20024;-35
2023/01/23 23:08:45;;;;;;;15.40;13.75;;;;;;;2.29;100.00;103861.59;5074048;28;20020;-35
2023/01/23 23:11:22;;;;;;;13.93;12.35;;;;;;;2.29;100.00;103859.81;5073115;28;20035;-34
2023/01/23 23:13:47;;;;;;;13.88;12.23;;;;;;;2.21;100.00;103847.91;5073661;28;20036;-34
2023/01/23 23:16:16;;;;;;;13.82;12.43;;;;;;;2.29;100.00;103859.81;5073258;28;20376;-34
2023/01/23 23:18:43;;;;;;;14.82;12.80;;;;;;;2.29;100.00;103854.47;5076941;28;20020;-35
2023/01/23 23:21:11;;;;;;;13.45;11.80;;;;;;;2.22;100.00;103845.13;5077288;28;20032;-34
2023/01/23 23:23:36;;;;;;;15.68;13.52;;;;;;;2.32;100.00;103856.06;5077870;28;20114;-35
2023/01/23 23:26:03;;;;;;;13.90;12.40;;;;;;;2.31;100.00;103847.19;5077284;28;20457;-34
2023/01/23 23:28:29;;;;;;;14.25;12.48;;;;;;;2.32;100.00;103848.91;5077166;28;20020;-34
2023/01/23 23:30:54;;;;;;;16.10;14.15;;;;;;;2.28;100.00;103846.53;5077448;28;20025;-34
2023/01/23 23:33:20;;;;;;;14.23;12.73;;;;;;;2.28;100.00;103846.53;5077650;28;20047;-34
2023/01/23 23:35:45;;;;;;;14.70;13.10;;;;;;;2.29;100.00;103848.22;5076660;28;20036;-34
2023/01/23 23:38:11;;;;;;;13.68;12.20;;;;;;;2.24;100.00;103829.00;5077322;28;20024;-34
2023/01/23 23:40:37;;;;;;;13.90;12.40;;;;;;;2.19;100.00;103825.78;5077197;28;20024;-34
2023/01/23 23:43:03;;;;;;;14.32;12.35;;;;;;;2.21;100.00;103830.06;5076974;28;20067;-34
2023/01/23 23:45:28;;;;;;;13.37;11.97;;;;;;;2.29;100.00;103834.88;5077436;28;20399;-34
2023/01/23 23:47:54;;;;;;;13.30;11.90;;;;;;;2.28;100.00;103838.53;5076524;28;20719;-34
2023/01/23 23:50:19;;;;;;;13.87;12.47;;;;;;;2.17;100.00;103823.22;5077093;28;20107;-34
2023/01/23 23:52:45;;;;;;;14.32;12.82;;;;;;;2.26;100.00;103838.63;5077239;28;20348;-34
2023/01/23 23:55:10;;;;;;;12.53;11.23;;;;;;;2.27;100.00;103845.69;5077213;28;20032;-34
2023/01/23 23:57:36;;;;;;;15.05;12.88;;;;;;;2.15;100.00;103824.28;5076966;28;20052;-34
